createdAt,value
2023-01-06T00:01:34.411Z,12.50
2023-01-06T00:04:04.377Z,12.60
2023-01-06T00:06:32.775Z,12.60
2023-01-06T00:09:02.359Z,12.60
2023-01-06T00:11:30.662Z,12.60
2023-01-06T00:13:59.435Z,12.50
2023-01-06T00:16:27.537Z,12.60
2023-01-06T00:18:56.842Z,12.60
2023-01-06T00:21:26.555Z,12.50
2023-01-06T00:23:54.724Z,12.50
2023-01-06T00:26:22.867Z,12.50
2023-01-06T00:28:54.398Z,12.50
2023-01-06T00:31:22.682Z,12.40
2023-01-06T00:33:50.750Z,12.40
2023-01-06T00:36:18.619Z,12.30
2023-01-06T00:38:49.990Z,12.30
2023-01-06T00:41:35.668Z,12.20
2023-01-06T00:44:03.861Z,12.30
2023-01-06T00:46:34.234Z,12.20
2023-01-06T00:49:05.867Z,12.20
2023-01-06T00:51:34.644Z,12.20
2023-01-06T00:54:04.178Z,12.20
2023-01-06T00:56:32.133Z,12.20
2023-01-06T00:59:00.028Z,12.10
2023-01-06T01:01:28.054Z,12.10
2023-01-06T01:03:56.061Z,12.10
2023-01-06T01:06:24.162Z,12.10
2023-01-06T01:08:55.582Z,12.00
2023-01-06T01:11:42.880Z,12.00
2023-01-06T01:14:11.307Z,11.90
2023-01-06T01:16:39.796Z,11.90
2023-01-06T01:19:08.510Z,11.80
2023-01-06T01:21:36.407Z,11.80
2023-01-06T01:24:04.370Z,11.70
2023-01-06T01:26:33.551Z,11.70
2023-01-06T01:29:01.696Z,11.60
2023-01-06T01:31:29.569Z,11.60
2023-01-06T01:33:57.575Z,11.50
2023-01-06T01:36:25.476Z,11.50
2023-01-06T01:38:53.375Z,11.50
2023-01-06T01:41:23.354Z,11.40
2023-01-06T01:43:54.685Z,11.40
2023-01-06T01:46:26.583Z,11.40
2023-01-06T01:48:58.014Z,11.40
2023-01-06T01:51:31.922Z,11.30
2023-01-06T01:54:03.660Z,11.30
2023-01-06T01:56:34.378Z,11.30
2023-01-06T01:59:06.225Z,11.20
2023-01-06T02:01:34.297Z,11.20
2023-01-06T02:04:03.543Z,11.10
2023-01-06T02:06:31.913Z,11.10
2023-01-06T02:09:03.997Z,11.00
2023-01-06T02:11:34.087Z,11.00
2023-01-06T02:14:13.185Z,10.90
2023-01-06T02:16:57.873Z,10.80
2023-01-06T02:20:01.024Z,10.80
2023-01-06T02:22:49.204Z,10.70
2023-01-06T02:25:42.226Z,10.60
2023-01-06T02:28:34.555Z,10.50
2023-01-06T02:31:44.840Z,10.50
2023-01-06T02:34:24.104Z,10.40
2023-01-06T02:36:59.976Z,10.30
2023-01-06T02:39:40.578Z,10.30
2023-01-06T02:42:18.242Z,10.20
2023-01-06T02:44:56.467Z,10.20
2023-01-06T02:47:33.505Z,10.10
2023-01-06T02:50:10.625Z,10.10
2023-01-06T02:52:46.037Z,10.00
2023-01-06T02:55:21.549Z,9.90
2023-01-06T02:57:53.522Z,9.90
2023-01-06T03:00:26.454Z,9.80
2023-01-06T03:02:59.732Z,9.80
2023-01-06T03:05:29.252Z,9.80
2023-01-06T03:08:00.696Z,9.70
2023-01-06T03:10:30.440Z,9.70
2023-01-06T03:13:03.908Z,9.70
2023-01-06T03:15:31.888Z,9.70
2023-01-06T03:18:01.175Z,9.70
2023-01-06T03:20:29.367Z,9.60
2023-01-06T03:22:57.287Z,9.70
2023-01-06T03:25:25.565Z,9.70
2023-01-06T03:27:53.425Z,9.60
2023-01-06T03:30:21.399Z,9.60
2023-01-06T03:32:57.472Z,9.60
2023-01-06T03:35:40.457Z,9.60
2023-01-06T03:38:17.177Z,9.50
2023-01-06T03:40:54.209Z,9.50
2023-01-06T03:43:27.011Z,9.50
2023-01-06T03:46:02.762Z,9.50
2023-01-06T03:48:46.164Z,9.50
2023-01-06T03:51:26.725Z,9.50
2023-01-06T03:54:01.805Z,9.50
2023-01-06T03:56:33.174Z,9.50
2023-01-06T03:59:05.489Z,9.50
2023-01-06T04:01:34.517Z,9.50
2023-01-06T04:04:03.391Z,9.50
2023-01-06T04:06:32.669Z,9.40
2023-01-06T04:09:00.588Z,9.40
2023-01-06T04:11:46.371Z,9.40
2023-01-06T04:14:14.189Z,9.30
2023-01-06T04:16:42.085Z,9.30
2023-01-06T04:19:09.924Z,9.30
2023-01-06T04:21:39.254Z,9.20
2023-01-06T04:24:07.780Z,9.20
2023-01-06T04:26:35.718Z,9.10
2023-01-06T04:29:03.903Z,9.10
2023-01-06T04:31:33.450Z,9.10
2023-01-06T04:34:03.233Z,9.10
2023-01-06T04:36:31.872Z,9.00
2023-01-06T04:39:01.725Z,9.00
2023-01-06T04:41:29.543Z,8.90
2023-01-06T04:43:58.220Z,8.90
2023-01-06T04:46:26.123Z,8.90
2023-01-06T04:48:53.946Z,8.80
2023-01-06T04:51:21.824Z,8.80
2023-01-06T04:53:49.695Z,8.80
2023-01-06T04:56:18.926Z,8.80
2023-01-06T04:58:46.817Z,8.80
2023-01-06T05:01:15.632Z,8.70
2023-01-06T05:03:43.644Z,8.60
2023-01-06T05:06:12.744Z,8.60
2023-01-06T05:08:42.482Z,8.50
2023-01-06T05:11:12.394Z,8.50
2023-01-06T05:13:42.007Z,8.50
2023-01-06T05:16:11.182Z,8.40
2023-01-06T05:18:39.216Z,8.40
2023-01-06T05:21:07.326Z,8.30
2023-01-06T05:23:35.395Z,8.30
2023-01-06T05:26:03.283Z,8.20
2023-01-06T05:28:32.164Z,8.20
2023-01-06T05:31:02.114Z,8.20
2023-01-06T05:33:30.210Z,8.20
2023-01-06T05:36:01.568Z,8.20
2023-01-06T05:38:29.415Z,8.10
2023-01-06T05:40:57.777Z,8.20
2023-01-06T05:43:26.537Z,8.10
2023-01-06T05:45:54.745Z,8.10
2023-01-06T05:48:26.188Z,8.10
2023-01-06T05:50:54.102Z,8.10
2023-01-06T05:53:21.963Z,8.00
2023-01-06T05:55:49.844Z,8.00
2023-01-06T05:58:17.733Z,8.00
2023-01-06T06:00:45.607Z,7.90
2023-01-06T06:03:13.482Z,7.90
2023-01-06T06:05:42.750Z,7.90
2023-01-06T06:08:10.578Z,7.90
2023-01-06T06:10:38.374Z,7.90
2023-01-06T06:13:06.259Z,7.80
2023-01-06T06:15:34.180Z,7.80
2023-01-06T06:18:03.002Z,7.80
2023-01-06T06:20:30.865Z,7.70
2023-01-06T06:23:00.126Z,7.70
2023-01-06T06:25:29.343Z,7.70
2023-01-06T06:28:00.874Z,7.60
2023-01-06T06:30:28.853Z,7.60
2023-01-06T06:32:56.758Z,7.50
2023-01-06T06:35:24.619Z,7.50
2023-01-06T06:37:54.743Z,7.40
2023-01-06T06:40:24.004Z,7.40
2023-01-06T06:42:53.161Z,7.40
2023-01-06T06:45:21.048Z,7.30
2023-01-06T06:47:48.967Z,7.30
2023-01-06T06:50:17.052Z,7.30
2023-01-06T06:52:44.893Z,7.20
2023-01-06T06:55:12.706Z,7.20
2023-01-06T06:57:41.912Z,7.20
2023-01-06T07:00:11.473Z,7.20
2023-01-06T07:02:39.294Z,7.20
2023-01-06T07:05:07.480Z,7.20
2023-01-06T07:07:35.353Z,7.20
2023-01-06T07:10:03.263Z,7.20
2023-01-06T07:12:31.135Z,7.20
2023-01-06T07:15:00.310Z,7.20
2023-01-06T07:17:28.690Z,7.20
2023-01-06T07:19:56.636Z,7.30
2023-01-06T07:22:24.529Z,7.30
2023-01-06T07:24:52.353Z,7.30
2023-01-06T07:27:20.277Z,7.30
2023-01-06T07:29:48.199Z,7.40
2023-01-06T07:32:17.376Z,7.40
2023-01-06T07:34:45.537Z,7.50
2023-01-06T07:37:13.438Z,7.50
2023-01-06T07:39:41.277Z,7.60
2023-01-06T07:42:09.898Z,7.70
2023-01-06T07:44:37.892Z,7.80
2023-01-06T07:47:06.549Z,7.80
2023-01-06T07:49:35.769Z,7.90
2023-01-06T07:52:03.696Z,8.00
2023-01-06T07:54:31.795Z,8.10
2023-01-06T07:56:59.678Z,8.10
2023-01-06T07:59:27.588Z,8.20
2023-01-06T08:01:55.704Z,8.40
2023-01-06T08:04:23.646Z,8.40
2023-01-06T08:06:52.854Z,8.60
2023-01-06T08:09:20.717Z,8.80
2023-01-06T08:11:48.594Z,9.10
2023-01-06T08:14:16.533Z,9.30
2023-01-06T08:16:44.465Z,9.60
2023-01-06T08:19:12.319Z,9.90
2023-01-06T08:21:40.197Z,10.10
2023-01-06T08:24:09.881Z,10.30
2023-01-06T08:26:37.814Z,10.50
2023-01-06T08:29:05.727Z,10.60
2023-01-06T08:31:33.828Z,10.70
2023-01-06T08:34:01.838Z,10.80
2023-01-06T08:36:29.825Z,10.90
2023-01-06T08:38:57.648Z,11.00
2023-01-06T08:41:26.944Z,11.10
2023-01-06T08:43:56.514Z,11.20
2023-01-06T08:46:26.336Z,11.20
2023-01-06T08:48:54.243Z,11.40
2023-01-06T08:51:23.625Z,11.50
2023-01-06T08:53:51.525Z,11.70
2023-01-06T08:56:21.641Z,11.80
2023-01-06T08:58:53.988Z,12.00
2023-01-06T09:01:23.820Z,12.10
2023-01-06T09:03:51.746Z,12.20
2023-01-06T09:06:20.297Z,12.30
2023-01-06T09:08:49.401Z,12.30
2023-01-06T09:11:18.215Z,12.40
2023-01-06T09:13:46.555Z,12.40
2023-01-06T09:16:15.942Z,12.40
2023-01-06T09:18:49.775Z,12.30
2023-01-06T09:21:18.836Z,12.40
2023-01-06T09:23:46.963Z,12.30
2023-01-06T09:26:15.279Z,12.30
2023-01-06T09:28:43.283Z,12.40
2023-01-06T09:31:11.896Z,12.40
2023-01-06T09:33:41.532Z,12.40
2023-01-06T09:36:09.658Z,12.50
2023-01-06T09:38:37.595Z,12.50
2023-01-06T09:41:26.186Z,12.60
2023-01-06T09:44:07.003Z,12.60
2023-01-06T09:46:38.183Z,12.70
2023-01-06T09:49:15.003Z,12.70
2023-01-06T09:51:44.920Z,12.80
2023-01-06T09:54:18.049Z,12.90
2023-01-06T09:56:52.474Z,13.00
2023-01-06T09:59:26.470Z,13.10
2023-01-06T10:01:55.770Z,13.20
2023-01-06T10:04:27.472Z,13.30
2023-01-06T10:07:06.146Z,13.40
